Time;durP1;ratioP1;P1;durP2;ratioP2;P2;SDS_P1;SDS_P2;PMS_P1;PMS_P2;Temp;Humidity;BMP_temperature;BMP_pressure;BME280_temperature;BME280_humidity;BME280_pressure;Samples;Min_cycle;Max_cycle;Signal;HPM_P1;HPM_P2
2023/08/13 00:01:53;;;;;;;8.82;2.88;;;15.80;99.90;;;;;;6308140;22;20057;-86
2023/08/13 00:04:18;;;;;;;10.23;3.05;;;15.90;99.90;;;;;;6283818;22;20027;-86
2023/08/13 00:06:56;;;;;;;12.48;3.05;;;16.00;99.90;;;;;;6279325;22;20485;-86
2023/08/13 00:09:22;;;;;;;12.95;3.15;;;16.10;99.90;;;;;;6281185;22;20096;-86
2023/08/13 00:11:48;;;;;;;14.55;3.20;;;16.80;99.90;;;;;;6308063;22;20444;-86
2023/08/13 00:14:13;;;;;;;14.07;3.35;;;16.10;99.90;;;;;;6272154;22;20030;-85
2023/08/13 00:19:25;;;;;;;15.93;3.35;;;16.20;99.90;;;;;;6280494;22;20016;-85
2023/08/13 00:22:03;;;;;;;13.02;3.20;;;16.10;99.90;;;;;;6283124;22;20073;-86
2023/08/13 00:24:29;;;;;;;13.50;3.20;;;16.10;99.90;;;;;;6313779;22;20057;-87
2023/08/13 00:27:06;;;;;;;11.38;3.15;;;16.10;99.90;;;;;;6307776;22;20011;-86
2023/08/13 00:29:33;;;;;;;12.15;3.28;;;16.20;99.90;;;;;;6309410;22;20090;-86
2023/08/13 00:32:17;;;;;;;11.38;3.15;;;16.10;99.90;;;;;;6281936;22;20126;-86
2023/08/13 00:34:43;;;;;;;11.93;3.10;;;16.70;99.90;;;;;;6283941;22;20015;-86
2023/08/13 00:37:08;;;;;;;16.15;3.67;;;16.10;99.90;;;;;;6307431;22;20432;-86
2023/08/13 00:39:37;;;;;;;13.07;3.42;;;16.10;99.90;;;;;;6282703;22;20019;-87
2023/08/13 00:42:03;;;;;;;13.13;3.35;;;16.10;99.90;;;;;;6280180;22;20053;-86
2023/08/13 00:45:20;;;;;;;12.13;3.13;;;16.20;99.90;;;;;;6279576;22;20029;-87
2023/08/13 00:48:11;;;;;;;12.15;3.03;;;15.80;99.90;;;;;;6305998;22;20019;-86
2023/08/13 00:50:52;;;;;;;14.82;3.45;;;16.40;99.90;;;;;;6279484;22;20027;-87
2023/08/13 00:53:18;;;;;;;13.57;3.78;;;16.20;99.90;;;;;;6279582;22;20035;-86
2023/08/13 00:55:57;;;;;;;12.13;3.15;;;16.30;99.90;;;;;;6304695;22;20051;-86
2023/08/13 00:58:23;;;;;;;11.43;3.67;;;16.20;99.90;;;;;;6280718;22;20072;-87
2023/08/13 01:00:49;;;;;;;10.27;3.28;;;16.30;99.90;;;;;;6280078;22;20049;-86
2023/08/13 01:03:24;;;;;;;12.77;3.17;;;16.30;99.90;;;;;;6280087;22;20011;-86
2023/08/13 01:06:31;;;;;;;12.20;3.20;;;16.30;99.90;;;;;;6279475;22;20019;-86
2023/08/13 01:11:53;;;;;;;15.77;3.55;;;16.30;99.90;;;;;;6276939;22;20027;-86
2023/08/13 01:14:57;;;;;;;15.33;3.53;;;16.40;99.90;;;;;;6262943;22;20031;-86
2023/08/13 01:17:37;;;;;;;14.15;3.30;;;16.20;99.90;;;;;;6280812;22;20023;-86
2023/08/13 01:20:29;;;;;;;12.90;3.85;;;16.40;99.90;;;;;;6278481;22;20064;-86
2023/08/13 01:22:54;;;;;;;12.68;3.47;;;16.60;99.90;;;;;;6278866;22;20016;-86
2023/08/13 01:25:33;;;;;;;14.52;3.55;;;16.50;99.90;;;;;;6280795;22;20026;-86
2023/08/13 01:28:38;;;;;;;17.70;3.95;;;16.50;99.90;;;;;;6278975;22;20023;-86
2023/08/13 01:33:42;;;;;;;14.73;3.90;;;16.60;99.90;;;;;;6306726;22;20016;-86
2023/08/13 01:36:20;;;;;;;13.05;3.40;;;17.00;99.90;;;;;;6306207;22;20482;-86
2023/08/13 01:38:47;;;;;;;13.95;3.70;;;16.70;99.90;;;;;;6306206;22;20018;-86
2023/08/13 01:41:43;;;;;;;14.38;3.55;;;16.70;99.90;;;;;;6307226;22;20381;-86
2023/08/13 01:44:22;;;;;;;14.57;3.67;;;16.60;99.90;;;;;;6278588;22;20019;-86
2023/08/13 01:46:48;;;;;;;16.20;3.83;;;16.60;99.90;;;;;;6279366;22;20019;-86
2023/08/13 01:49:14;;;;;;;15.57;4.03;;;16.60;99.90;;;;;;6306662;22;20019;-89
2023/08/13 01:51:55;;;;;;;14.65;3.92;;;16.90;99.90;;;;;;6279193;22;20051;-90
2023/08/13 01:54:21;;;;;;;13.75;3.65;;;16.40;99.90;;;;;;6309119;22;20466;-89
2023/08/13 01:56:47;;;;;;;11.95;3.33;;;16.40;99.90;;;;;;6278839;22;20015;-89
2023/08/13 01:59:12;;;;;;;14.07;3.67;;;16.40;99.90;;;;;;6306771;22;20019;-88
2023/08/13 02:01:38;;;;;;;12.95;3.70;;;16.40;99.90;;;;;;6306239;22;20332;-89
2023/08/13 02:04:04;;;;;;;14.30;3.40;;;16.40;99.90;;;;;;6307070;22;20094;-89
2023/08/13 02:06:39;;;;;;;12.05;3.78;;;16.30;99.90;;;;;;6305449;22;20015;-89
2023/08/13 02:09:05;;;;;;;16.52;3.47;;;16.40;99.90;;;;;;6307398;22;20060;-89
2023/08/13 02:11:31;;;;;;;17.13;3.75;;;16.30;99.90;;;;;;6280420;22;20370;-89
2023/08/13 02:13:56;;;;;;;17.73;3.70;;;16.30;99.90;;;;;;6306418;22;20007;-89
2023/08/13 02:16:37;;;;;;;13.27;3.60;;;16.30;99.90;;;;;;6307134;22;20019;-89
2023/08/13 02:19:03;;;;;;;12.95;3.50;;;16.20;99.90;;;;;;6279642;22;20015;-88
2023/08/13 02:21:38;;;;;;;13.35;3.50;;;16.20;99.90;;;;;;6279128;22;20007;-89
2023/08/13 02:24:04;;;;;;;12.40;3.25;;;16.30;99.90;;;;;;6281363;22;20015;-88
2023/08/13 02:26:36;;;;;;;15.40;3.58;;;16.20;99.90;;;;;;6283430;22;20015;-89
2023/08/13 02:29:02;;;;;;;16.92;3.80;;;16.00;99.90;;;;;;6282602;22;20039;-89
2023/08/13 02:31:27;;;;;;;15.63;3.80;;;16.20;99.90;;;;;;6280107;22;20022;-89
2023/08/13 02:34:11;;;;;;;16.50;3.47;;;16.10;99.90;;;;;;6306015;22;20093;-89
2023/08/13 02:36:37;;;;;;;15.55;4.10;;;16.60;99.90;;;;;;6278864;22;20382;-89
2023/08/13 02:39:03;;;;;;;15.68;4.07;;;16.00;99.90;;;;;;6307130;22;20077;-89
2023/08/13 02:41:38;;;;;;;11.52;3.42;;;16.00;99.90;;;;;;6306330;22;20011;-89
2023/08/13 02:44:12;;;;;;;11.95;3.38;;;15.90;99.90;;;;;;6279790;22;20065;-89
2023/08/13 02:46:51;;;;;;;11.55;3.63;;;15.90;99.90;;;;;;6279050;22;20022;-89
2023/08/13 02:49:19;;;;;;;16.15;3.70;;;15.50;99.90;;;;;;6273437;22;20094;-89
2023/08/13 02:52:03;;;;;;;12.15;3.95;;;16.00;99.90;;;;;;6273991;22;20046;-89
2023/08/13 02:54:44;;;;;;;10.82;3.80;;;15.90;99.90;;;;;;6273624;22;20038;-87
2023/08/13 02:57:10;;;;;;;12.82;3.67;;;15.90;99.90;;;;;;6275929;22;20336;-86
2023/08/13 02:59:35;;;;;;;11.73;3.78;;;15.80;99.90;;;;;;6248373;22;20019;-86
2023/08/13 03:02:27;;;;;;;14.93;4.15;;;15.80;99.90;;;;;;6286894;22;20016;-86
2023/08/13 03:05:05;;;;;;;16.55;3.67;;;15.80;99.90;;;;;;6247439;22;20015;-86
2023/08/13 03:07:30;;;;;;;16.25;4.03;;;15.70;99.90;;;;;;6248589;22;20038;-86
2023/08/13 03:10:14;;;;;;;11.90;3.72;;;15.60;99.90;;;;;;6262959;22;20447;-87
2023/08/13 03:12:40;;;;;;;16.02;3.95;;;15.50;99.90;;;;;;6279170;22;20085;-86
2023/08/13 03:15:06;;;;;;;14.45;3.97;;;15.50;99.90;;;;;;6278415;22;20007;-87
2023/08/13 03:17:32;;;;;;;13.70;3.88;;;15.50;99.90;;;;;;6279340;22;20331;-87
2023/08/13 03:19:59;;;;;;;13.55;3.78;;;15.40;99.90;;;;;;6305916;22;20082;-87
2023/08/13 03:22:34;;;;;;;13.15;4.15;;;15.30;99.90;;;;;;6279641;22;20023;-90
2023/08/13 03:25:12;;;;;;;18.60;4.50;;;16.30;99.90;;;;;;6307885;22;20015;-89
2023/08/13 03:27:48;;;;;;;14.00;4.15;;;15.20;99.90;;;;;;6305136;22;20019;-89
2023/08/13 03:30:17;;;;;;;12.80;3.75;;;15.20;99.90;;;;;;6277205;22;20020;-89
2023/08/13 03:32:42;;;;;;;11.48;3.90;;;15.20;99.90;;;;;;6305843;22;20021;-89
2023/08/13 03:35:08;;;;;;;16.95;5.03;;;15.10;99.90;;;;;;6278354;22;20388;-89
2023/08/13 03:37:37;;;;;;;14.30;4.78;;;15.10;99.90;;;;;;6277277;22;20340;-89
2023/08/13 03:40:16;;;;;;;15.65;4.55;;;15.00;99.90;;;;;;6306504;22;20098;-89
2023/08/13 03:42:57;;;;;;;13.00;4.00;;;15.00;99.90;;;;;;6279202;22;20080;-89
2023/08/13 03:45:25;;;;;;;15.77;3.88;;;15.00;99.90;;;;;;6305964;22;20016;-89
2023/08/13 03:48:03;;;;;;;15.13;4.20;;;14.90;99.90;;;;;;6279163;22;20018;-89
2023/08/13 03:50:32;;;;;;;18.85;4.05;;;14.90;99.90;;;;;;6277990;22;20015;-89
2023/08/13 03:53:24;;;;;;;12.13;3.60;;;14.80;99.90;;;;;;6278366;22;20019;-89
2023/08/13 03:55:51;;;;;;;16.80;4.45;;;14.80;99.90;;;;;;6305141;22;20020;-89
2023/08/13 03:58:42;;;;;;;14.32;4.38;;;14.80;99.90;;;;;;6275664;22;20023;-86
2023/08/13 04:01:11;;;;;;;11.77;3.70;;;14.80;99.90;;;;;;6278659;22;20019;-86
2023/08/13 04:03:49;;;;;;;13.60;4.00;;;14.70;99.90;;;;;;6278654;22;20030;-86
2023/08/13 04:06:18;;;;;;;14.13;4.13;;;15.40;99.90;;;;;;6276489;22;20011;-86
2023/08/13 04:08:50;;;;;;;13.77;3.88;;;14.60;99.90;;;;;;6278410;22;20025;-86
2023/08/13 04:11:17;;;;;;;12.23;3.97;;;14.60;99.90;;;;;;6278397;22;20369;-86
2023/08/13 04:13:55;;;;;;;12.77;4.28;;;14.60;99.90;;;;;;6307195;22;20062;-86
2023/08/13 04:16:21;;;;;;;13.80;4.05;;;14.60;99.90;;;;;;6308961;22;20019;-87
2023/08/13 04:19:12;;;;;;;10.55;4.10;;;14.60;99.90;;;;;;6277749;22;20068;-89
2023/08/13 04:21:38;;;;;;;12.77;4.18;;;14.50;99.90;;;;;;6278830;22;20045;-87
2023/08/13 04:24:22;;;;;;;14.43;4.18;;;14.60;99.90;;;;;;6279586;22;20012;-87
2023/08/13 04:30:29;;;;;;;11.90;4.28;;;14.50;99.90;;;;;;6213804;23;19930;-87
2023/08/13 04:35:35;;;;;;;10.65;3.70;;;14.50;99.90;;;;;;6216638;23;20057;-86
2023/08/13 04:38:01;;;;;;;12.02;4.07;;;14.40;99.90;;;;;;6216773;23;20052;-87
2023/08/13 04:41:11;;;;;;;12.30;3.90;;;14.50;99.90;;;;;;6244002;22;20450;-87
2023/08/13 04:43:43;;;;;;;15.73;3.90;;;14.50;99.90;;;;;;6280255;22;20015;-87
2023/08/13 04:46:18;;;;;;;11.93;3.95;;;15.00;99.90;;;;;;6280494;22;20015;-86
2023/08/13 04:49:02;;;;;;;15.27;4.30;;;15.40;99.90;;;;;;6307341;22;20050;-87
2023/08/13 04:51:34;;;;;;;15.38;4.32;;;14.80;99.90;;;;;;6280303;22;20502;-87
2023/08/13 04:54:09;;;;;;;14.77;4.20;;;15.20;99.90;;;;;;6279649;22;20121;-87
2023/08/13 04:56:38;;;;;;;14.38;3.53;;;15.30;99.90;;;;;;6307767;22;20073;-87
2023/08/13 04:59:10;;;;;;;14.52;4.10;;;14.70;99.90;;;;;;6280804;22;20015;-88
2023/08/13 05:01:51;;;;;;;12.00;4.10;;;14.40;99.90;;;;;;6279203;22;20050;-87
2023/08/13 05:04:32;;;;;;;14.55;4.55;;;14.80;99.90;;;;;;6306987;22;20011;-87
2023/08/13 05:06:58;;;;;;;12.38;4.30;;;14.90;99.90;;;;;;6306212;22;20336;-87
2023/08/13 05:09:42;;;;;;;14.80;4.70;;;16.00;99.90;;;;;;6280122;22;20019;-87
2023/08/13 05:12:08;;;;;;;13.60;4.20;;;15.10;99.90;;;;;;6279643;22;20015;-87
2023/08/13 05:14:52;;;;;;;15.75;4.15;;;15.20;99.90;;;;;;6279828;22;20020;-87
2023/08/13 05:17:22;;;;;;;11.98;3.75;;;15.30;99.90;;;;;;6279788;22;20022;-87
2023/08/13 05:19:54;;;;;;;10.98;4.18;;;15.40;99.90;;;;;;6279614;22;20072;-87
2023/08/13 05:22:46;;;;;;;14.57;4.03;;;15.70;99.90;;;;;;6276526;22;20023;-87
2023/08/13 05:25:12;;;;;;;14.25;4.28;;;15.40;99.90;;;;;;6306304;22;20058;-87
2023/08/13 05:27:38;;;;;;;14.27;3.88;;;15.50;99.90;;;;;;6278476;22;20440;-87
2023/08/13 05:30:08;;;;;;;17.85;4.03;;;15.60;99.90;;;;;;6272723;22;20023;-87
2023/08/13 05:32:50;;;;;;;15.95;4.38;;;16.00;99.90;;;;;;6291716;22;20448;-88
2023/08/13 05:35:28;;;;;;;13.82;4.35;;;16.40;99.90;;;;;;6307775;22;20011;-87
2023/08/13 05:37:54;;;;;;;14.30;5.35;;;15.40;99.90;;;;;;6304801;22;20030;-87
2023/08/13 05:40:23;;;;;;;11.65;3.92;;;15.80;99.90;;;;;;6307343;22;20015;-87
2023/08/13 05:42:55;;;;;;;11.98;4.10;;;15.80;99.90;;;;;;6278518;22;20015;-87
2023/08/13 05:45:26;;;;;;;10.07;3.53;;;15.90;99.90;;;;;;6307066;22;20015;-84
2023/08/13 05:47:52;;;;;;;14.25;4.25;;;15.90;99.90;;;;;;6307059;22;20057;-84
2023/08/13 05:50:20;;;;;;;16.88;4.07;;;16.00;99.90;;;;;;6306596;22;20074;-85
2023/08/13 05:52:49;;;;;;;16.92;4.18;;;16.00;99.90;;;;;;6279653;22;20011;-85
2023/08/13 05:55:24;;;;;;;16.50;4.95;;;16.00;99.90;;;;;;6280100;22;20023;-85
2023/08/13 05:57:56;;;;;;;10.93;3.78;;;16.10;99.90;;;;;;6279431;22;20042;-85
2023/08/13 06:00:22;;;;;;;13.23;4.10;;;16.10;99.90;;;;;;6283539;22;20019;-84
2023/08/13 06:02:48;;;;;;;12.52;3.92;;;16.20;99.90;;;;;;6306812;22;20025;-83
2023/08/13 06:05:21;;;;;;;19.00;4.97;;;16.80;99.90;;;;;;6284454;22;20081;-86
2023/08/13 06:07:47;;;;;;;13.27;4.18;;;16.30;99.90;;;;;;6305433;22;20023;-84
2023/08/13 06:10:22;;;;;;;13.43;4.60;;;16.40;99.90;;;;;;6281460;22;20108;-84
2023/08/13 06:13:03;;;;;;;12.80;3.80;;;16.40;99.90;;;;;;6309938;22;20019;-85
2023/08/13 06:19:36;;;;;;;15.23;4.53;;;16.20;99.90;;;;;;6163978;23;20047;-84
2023/08/13 06:22:17;;;;;;;13.77;4.40;;;16.60;99.90;;;;;;6184724;23;20021;-84
2023/08/13 06:27:59;;;;;;;13.45;3.80;;;16.60;99.90;;;;;;6257371;22;20057;-82
2023/08/13 06:30:28;;;;;;;12.40;4.43;;;16.60;99.90;;;;;;6306052;22;20019;-81
2023/08/13 06:33:03;;;;;;;12.93;3.90;;;16.70;99.90;;;;;;6303974;22;20023;-82
2023/08/13 06:35:29;;;;;;;12.60;3.80;;;16.70;99.90;;;;;;6281033;22;20026;-82
2023/08/13 06:37:56;;;;;;;14.50;4.32;;;16.80;99.90;;;;;;6278734;22;20015;-82
2023/08/13 06:40:51;;;;;;;13.80;4.20;;;16.80;99.90;;;;;;6275738;22;20015;-82
2023/08/13 06:44:29;;;;;;;12.35;3.97;;;16.90;99.90;;;;;;6282359;22;20016;-82
2023/08/13 06:47:02;;;;;;;12.40;4.07;;;17.00;99.90;;;;;;6308954;22;20022;-82
2023/08/13 06:49:31;;;;;;;11.80;3.97;;;17.10;99.90;;;;;;6308674;22;20019;-84
2023/08/13 06:52:00;;;;;;;14.20;3.95;;;17.20;99.90;;;;;;6281186;22;20012;-82
2023/08/13 06:54:37;;;;;;;12.00;3.90;;;17.20;99.90;;;;;;6280205;22;20064;-83
2023/08/13 06:57:12;;;;;;;13.10;4.15;;;17.40;99.90;;;;;;6309112;22;20015;-82
2023/08/13 06:59:41;;;;;;;14.70;4.25;;;17.70;99.90;;;;;;6280860;22;20060;-82
2023/08/13 07:02:13;;;;;;;12.75;4.10;;;17.60;99.90;;;;;;6279436;22;20056;-82
2023/08/13 07:04:44;;;;;;;16.90;5.05;;;17.70;99.90;;;;;;6309263;22;20015;-82
2023/08/13 07:07:15;;;;;;;11.43;4.30;;;17.80;99.90;;;;;;6307875;22;20034;-83
2023/08/13 07:09:46;;;;;;;14.75;4.47;;;17.90;99.90;;;;;;6281499;22;20011;-82
2023/08/13 07:12:18;;;;;;;11.43;3.85;;;18.10;99.90;;;;;;6282422;22;20073;-83
2023/08/13 07:14:52;;;;;;;13.23;4.00;;;18.00;99.90;;;;;;6308663;22;20015;-83
2023/08/13 07:17:26;;;;;;;;;;;18.20;99.90;;;;;;6282896;22;20030;-83
2023/08/13 07:19:52;;;;;;;12.85;4.40;;;18.50;99.90;;;;;;6281738;22;19915;-82
2023/08/13 07:22:19;;;;;;;14.38;4.15;;;18.20;99.90;;;;;;6278457;22;20109;-83
2023/08/13 07:24:48;;;;;;;14.02;4.40;;;18.30;99.90;;;;;;6308382;22;20019;-83
2023/08/13 07:27:19;;;;;;;11.35;4.18;;;18.30;99.90;;;;;;6308888;22;20082;-83
2023/08/13 07:29:45;;;;;;;11.70;3.90;;;18.10;99.90;;;;;;6279533;22;20321;-83
2023/08/13 07:32:16;;;;;;;13.77;3.92;;;18.50;99.90;;;;;;6280663;22;20011;-83
2023/08/13 07:34:42;;;;;;;14.55;4.28;;;18.50;99.90;;;;;;6278983;22;20015;-83
2023/08/13 07:37:14;;;;;;;12.48;3.75;;;18.50;99.90;;;;;;6277899;22;20098;-83
2023/08/13 07:39:56;;;;;;;11.85;3.70;;;18.60;99.90;;;;;;6275340;22;20526;-83
2023/08/13 07:42:28;;;;;;;11.18;3.90;;;18.80;99.90;;;;;;6276276;22;20513;-83
2023/08/13 07:44:57;;;;;;;11.95;3.90;;;18.80;99.90;;;;;;6306716;22;20089;-85
2023/08/13 07:47:27;;;;;;;13.43;3.88;;;19.00;99.90;;;;;;6279633;22;20424;-85
2023/08/13 07:49:59;;;;;;;11.68;3.85;;;19.20;99.90;;;;;;6305383;22;20364;-84
2023/08/13 07:52:28;;;;;;;14.65;3.75;;;19.30;99.90;;;;;;6306424;22;20011;-85
2023/08/13 07:55:14;;;;;;;12.57;3.60;;;19.30;99.90;;;;;;6306716;22;20023;-85
2023/08/13 07:57:40;;;;;;;10.98;3.90;;;19.20;99.90;;;;;;6305356;22;20097;-85
2023/08/13 08:00:12;;;;;;;13.15;3.78;;;19.20;99.90;;;;;;6280992;22;20050;-85
2023/08/13 08:02:44;;;;;;;10.32;3.70;;;19.10;99.90;;;;;;6280709;22;20098;-85
2023/08/13 08:05:20;;;;;;;13.77;3.55;;;19.20;99.90;;;;;;6280103;22;20034;-84
2023/08/13 08:11:55;;;;;;;13.27;3.20;;;19.30;99.90;;;;;;6303418;22;20435;-85
2023/08/13 08:15:13;;;;;;;12.13;3.30;;;19.20;99.90;;;;;;6280434;22;20454;-86
2023/08/13 08:17:48;;;;;;;9.38;2.90;;;19.40;99.90;;;;;;6305670;22;20088;-85
2023/08/13 08:27:11;;;;;;;10.80;3.25;;;19.50;99.90;;;;;;6119160;23;20021;-85
2023/08/13 08:30:23;;;;;;;11.75;2.97;;;19.30;99.90;;;;;;6094619;23;20018;-83
2023/08/13 08:32:55;;;;;;;12.07;3.45;;;19.40;99.90;;;;;;6249975;22;20019;-85
2023/08/13 08:35:51;;;;;;;11.65;3.47;;;19.70;99.90;;;;;;6308324;22;20222;-86
2023/08/13 08:38:19;;;;;;;10.30;3.17;;;19.80;99.90;;;;;;6283094;22;20137;-86
2023/08/13 08:41:04;;;;;;;12.68;2.85;;;19.90;99.90;;;;;;6307140;22;20019;-86
2023/08/13 08:43:50;;;;;;;12.20;3.30;;;20.10;99.90;;;;;;6308898;22;20071;-86
2023/08/13 08:50:40;;;;;;;13.30;2.95;;;20.40;99.90;;;;;;6238768;22;20019;-87
2023/08/13 08:53:05;;;;;;;11.13;2.97;;;20.90;99.90;;;;;;6248251;22;20020;-85
2023/08/13 08:55:47;;;;;;;;;;;;;;;;;;;;;
2023/08/13 08:58:31;;;;;;;11.23;3.30;;;20.60;99.90;;;;;;6248504;22;20027;-85
2023/08/13 09:01:00;;;;;;;10.13;3.40;;;20.60;99.90;;;;;;6244440;22;20016;-85
2023/08/13 09:03:27;;;;;;;12.25;3.40;;;20.60;99.90;;;;;;6277119;22;20027;-85
2023/08/13 09:06:11;;;;;;;10.38;3.42;;;20.60;99.90;;;;;;6277617;22;20357;-85
2023/08/13 09:08:52;;;;;;;10.85;3.22;;;20.70;99.90;;;;;;6276722;22;20019;-84
2023/08/13 09:11:30;;;;;;;12.95;3.55;;;20.80;99.90;;;;;;6250912;22;20091;-85
2023/08/13 09:14:05;;;;;;;9.32;2.63;;;20.80;99.90;;;;;;6271295;22;20128;-86
2023/08/13 09:16:46;;;;;;;11.23;2.95;;;20.80;99.90;;;;;;6277845;22;20016;-85
2023/08/13 09:19:16;;;;;;;10.73;3.20;;;21.00;99.90;;;;;;6250489;22;20020;-85
2023/08/13 09:25:00;;;;;;;8.52;2.70;;;20.90;99.90;;;;;;6277381;22;20016;-86
2023/08/13 09:28:06;;;;;;;10.30;2.80;;;21.00;99.90;;;;;;6276929;22;20045;-86
2023/08/13 09:30:54;;;;;;;11.85;3.47;;;21.10;99.90;;;;;;6158512;23;20458;-85
2023/08/13 09:33:29;;;;;;;8.52;2.67;;;21.10;99.90;;;;;;6155320;23;20485;-85
2023/08/13 09:36:41;;;;;;;10.02;2.63;;;21.20;99.90;;;;;;6267489;22;20020;-84
2023/08/13 09:39:28;;;;;;;9.73;2.67;;;21.20;99.90;;;;;;6250021;22;20463;-85
2023/08/13 09:41:54;;;;;;;10.75;3.25;;;21.40;99.90;;;;;;6248991;22;20490;-85
2023/08/13 09:44:32;;;;;;;9.63;2.75;;;21.30;99.90;;;;;;6252967;22;20022;-85
2023/08/13 09:47:17;;;;;;;10.13;2.50;;;21.50;99.90;;;;;;6243527;22;20363;-86
2023/08/13 09:49:44;;;;;;;7.15;2.20;;;21.70;99.90;;;;;;6246293;22;20024;-84
2023/08/13 09:52:27;;;;;;;9.15;2.53;;;22.00;99.90;;;;;;6248659;22;20343;-83
2023/08/13 09:55:12;;;;;;;8.70;2.70;;;21.90;99.90;;;;;;6249639;22;20041;-83
2023/08/13 09:57:40;;;;;;;7.38;2.30;;;22.10;99.90;;;;;;6275757;22;20019;-84
2023/08/13 10:00:11;;;;;;;10.52;2.40;;;22.10;99.90;;;;;;6276354;22;20019;-84
2023/08/13 10:02:55;;;;;;;9.13;2.40;;;22.20;99.90;;;;;;6248263;22;20020;-84
2023/08/13 10:05:41;;;;;;;9.02;2.20;;;22.20;99.90;;;;;;6276197;22;20064;-84
2023/08/13 10:08:22;;;;;;;12.02;2.63;;;22.20;99.90;;;;;;6246354;22;20024;-83
2023/08/13 10:11:07;;;;;;;8.35;2.22;;;22.10;99.90;;;;;;6247720;22;20019;-83
2023/08/13 10:13:55;;;;;;;7.93;2.10;;;22.40;99.90;;;;;;6249956;22;20455;-83
2023/08/13 10:16:21;;;;;;;7.72;2.20;;;22.70;99.90;;;;;;6281615;22;20327;-85
2023/08/13 10:19:00;;;;;;;6.97;1.98;;;22.70;99.90;;;;;;6249216;22;20019;-84
2023/08/13 10:21:36;;;;;;;7.97;1.95;;;22.60;99.90;;;;;;6278344;22;20020;-84
2023/08/13 10:24:28;;;;;;;8.00;1.80;;;22.80;99.90;;;;;;6248188;22;20018;-84
2023/08/13 10:27:03;;;;;;;7.32;1.80;;;22.80;99.90;;;;;;6277130;22;20138;-84
2023/08/13 10:29:41;;;;;;;9.60;1.80;;;22.90;99.90;;;;;;6276593;22;20012;-83
2023/08/13 10:32:25;;;;;;;6.45;1.60;;;23.20;99.90;;;;;;6273991;22;20020;-83
2023/08/13 10:34:51;;;;;;;9.00;2.30;;;23.20;99.90;;;;;;6250227;22;20030;-84
2023/08/13 10:37:36;;;;;;;6.78;2.00;;;23.30;99.90;;;;;;6249770;22;20416;-84
2023/08/13 10:40:02;;;;;;;7.32;1.70;;;23.20;99.90;;;;;;6249639;22;20447;-83
2023/08/13 10:42:48;;;;;;;6.78;1.92;;;23.10;99.90;;;;;;6278370;22;20046;-84
2023/08/13 10:45:16;;;;;;;6.80;1.80;;;23.30;99.90;;;;;;6276957;22;20043;-84
2023/08/13 10:48:04;;;;;;;6.53;1.83;;;23.40;99.90;;;;;;6277636;22;20020;-84
2023/08/13 10:50:59;;;;;;;6.03;1.60;;;23.70;99.90;;;;;;6248222;22;20031;-87
2023/08/13 10:53:39;;;;;;;6.18;1.70;;;23.70;99.90;;;;;;6246924;22;20020;-86
2023/08/13 10:56:06;;;;;;;7.03;2.00;;;23.50;99.90;;;;;;6281997;22;20427;-87
2023/08/13 10:58:41;;;;;;;6.47;1.70;;;23.30;99.90;;;;;;6279630;22;20019;-87
2023/08/13 11:03:54;;;;;;;6.25;1.60;;;23.50;99.90;;;;;;6305002;22;20131;-86
2023/08/13 11:06:22;;;;;;;5.85;1.70;;;23.20;99.90;;;;;;6278701;22;20072;-86
2023/08/13 11:09:07;;;;;;;7.70;2.00;;;23.10;99.90;;;;;;6278890;22;20015;-87
2023/08/13 11:11:55;;;;;;;8.02;1.85;;;23.00;99.90;;;;;;6279653;22;20033;-85
2023/08/13 11:16:49;;;;;;;7.43;1.80;;;23.50;99.90;;;;;;6284354;22;20024;-85
2023/08/13 11:19:14;;;;;;;8.73;1.98;;;23.70;99.90;;;;;;6275041;22;20024;-86
2023/08/13 11:21:50;;;;;;;7.15;2.20;;;23.60;99.90;;;;;;6272440;22;20102;-85
2023/08/13 11:24:16;;;;;;;7.20;1.90;;;23.60;99.90;;;;;;6273902;22;20387;-85
2023/08/13 11:26:41;;;;;;;8.02;1.88;;;23.60;99.90;;;;;;6275651;22;20445;-85
2023/08/13 11:29:26;;;;;;;6.80;1.98;;;23.60;99.90;;;;;;6247358;22;20011;-85
2023/08/13 11:31:52;;;;;;;7.10;1.80;;;23.60;99.90;;;;;;6275288;22;20141;-85
2023/08/13 11:34:33;;;;;;;6.53;1.65;;;23.50;99.90;;;;;;6279365;22;20015;-86
2023/08/13 11:36:59;;;;;;;7.40;1.98;;;23.40;99.90;;;;;;6251557;22;20087;-85
2023/08/13 11:39:25;;;;;;;6.13;1.83;;;23.40;99.90;;;;;;6284046;22;20108;-85
2023/08/13 11:42:16;;;;;;;7.25;1.95;;;23.20;99.90;;;;;;6306541;22;20019;-85
2023/08/13 11:44:49;;;;;;;7.15;1.90;;;23.10;99.90;;;;;;6281036;22;20015;-85
2023/08/13 11:47:27;;;;;;;7.30;1.90;;;23.20;99.90;;;;;;6280461;22;20078;-85
2023/08/13 11:49:54;;;;;;;6.80;2.00;;;23.20;99.90;;;;;;6278786;22;20026;-85
2023/08/13 11:52:33;;;;;;;7.72;2.20;;;23.20;99.90;;;;;;6280207;22;20513;-86
2023/08/13 11:55:40;;;;;;;6.63;1.90;;;23.20;99.90;;;;;;6280333;22;20060;-86
2023/08/13 11:58:17;;;;;;;7.40;2.08;;;23.20;99.90;;;;;;6280434;22;20094;-86
2023/08/13 12:01:02;;;;;;;8.18;2.10;;;23.10;99.90;;;;;;6308443;22;20015;-86
2023/08/13 12:06:56;;;;;;;11.18;2.50;;;22.80;99.90;;;;;;6215394;23;20027;-88
2023/08/13 12:09:22;;;;;;;8.40;2.20;;;22.60;99.90;;;;;;6216124;23;20017;-87
2023/08/13 12:12:03;;;;;;;9.02;2.40;;;22.60;99.90;;;;;;6219651;23;20027;-85
2023/08/13 12:14:29;;;;;;;7.35;2.20;;;22.60;99.90;;;;;;6272455;22;20038;-85
2023/08/13 12:17:04;;;;;;;9.60;2.30;;;22.60;99.90;;;;;;6278831;22;20023;-86
2023/08/13 12:19:30;;;;;;;8.20;2.50;;;22.60;99.90;;;;;;6279309;22;20019;-85
2023/08/13 12:22:13;;;;;;;9.45;2.40;;;22.60;99.90;;;;;;6279458;22;20011;-87
2023/08/13 12:24:47;;;;;;;9.30;2.40;;;22.70;99.90;;;;;;6280575;22;20331;-87
2023/08/13 12:27:13;;;;;;;12.52;2.70;;;22.60;99.90;;;;;;6281595;22;20081;-86
2023/08/13 12:32:10;;;;;;;10.75;2.40;;;23.00;99.90;;;;;;6317261;22;20048;-86
2023/08/13 12:34:38;;;;;;;10.15;2.78;;;23.20;99.90;;;;;;6312550;22;20038;-86
2023/08/13 12:37:16;;;;;;;8.88;2.47;;;23.40;99.90;;;;;;6280660;22;20015;-86
2023/08/13 12:39:54;;;;;;;11.27;2.75;;;23.50;99.90;;;;;;6279778;22;20093;-86
2023/08/13 12:42:20;;;;;;;7.72;2.50;;;23.90;99.90;;;;;;6281023;22;20011;-85
2023/08/13 12:44:53;;;;;;;9.88;2.55;;;24.10;99.90;;;;;;6278784;22;20015;-86
2023/08/13 12:47:27;;;;;;;8.20;2.38;;;24.00;99.90;;;;;;6311064;22;20015;-87
2023/08/13 12:49:59;;;;;;;9.30;2.30;;;23.70;99.90;;;;;;6317578;22;20022;-85
2023/08/13 12:52:31;;;;;;;11.82;3.08;;;23.50;99.90;;;;;;6280153;22;20090;-85
2023/08/13 12:55:06;;;;;;;9.48;2.40;;;23.40;99.90;;;;;;6308055;22;20339;-85
2023/08/13 12:57:41;;;;;;;7.88;2.30;;;23.40;99.90;;;;;;6280681;22;20338;-85
2023/08/13 13:00:08;;;;;;;11.75;2.78;;;23.40;99.90;;;;;;6307089;22;20019;-85
2023/08/13 13:02:34;;;;;;;8.90;2.20;;;23.30;99.90;;;;;;6280279;22;20018;-85
2023/08/13 13:05:14;;;;;;;10.40;2.42;;;23.20;99.90;;;;;;6279812;22;20023;-85
2023/08/13 13:07:40;;;;;;;9.02;2.55;;;23.20;99.90;;;;;;6279661;22;20023;-84
2023/08/13 13:10:24;;;;;;;10.02;2.67;;;23.30;99.90;;;;;;6308198;22;20011;-85
2023/08/13 13:12:50;;;;;;;8.77;2.40;;;23.20;99.90;;;;;;6279188;22;20102;-84
2023/08/13 13:15:17;;;;;;;11.90;2.60;;;23.00;99.90;;;;;;6280571;22;20042;-85
2023/08/13 13:18:01;;;;;;;10.32;2.58;;;23.40;99.90;;;;;;6279991;22;20499;-85
2023/08/13 13:20:37;;;;;;;8.80;2.35;;;23.30;99.90;;;;;;6279864;22;20101;-85
2023/08/13 13:23:03;;;;;;;7.75;2.40;;;23.20;99.90;;;;;;6280725;22;20056;-85
2023/08/13 13:25:28;;;;;;;10.85;2.45;;;23.20;99.90;;;;;;6308745;22;20027;-85
2023/08/13 13:28:09;;;;;;;8.80;2.40;;;23.20;99.90;;;;;;6279265;22;20019;-84
2023/08/13 13:30:35;;;;;;;9.77;2.50;;;23.10;99.90;;;;;;6279612;22;20015;-85
2023/08/13 13:33:01;;;;;;;8.00;2.10;;;22.90;99.90;;;;;;6279970;22;20096;-85
2023/08/13 13:35:40;;;;;;;8.88;2.35;;;22.90;99.90;;;;;;6279366;22;20130;-84
2023/08/13 13:38:21;;;;;;;8.30;2.13;;;22.70;99.90;;;;;;6280060;22;20519;-85
2023/08/13 13:41:02;;;;;;;9.73;2.28;;;22.70;99.90;;;;;;6280126;22;20019;-85
2023/08/13 13:43:34;;;;;;;9.80;2.20;;;22.70;99.90;;;;;;6306181;22;20015;-84
2023/08/13 13:46:06;;;;;;;9.15;2.25;;;22.70;99.90;;;;;;6307779;22;20019;-85
2023/08/13 13:48:44;;;;;;;9.65;2.28;;;22.70;99.90;;;;;;6278949;22;20018;-84
2023/08/13 13:51:13;;;;;;;9.55;2.53;;;22.70;99.90;;;;;;6307517;22;20265;-85
2023/08/13 13:53:41;;;;;;;8.85;2.40;;;22.60;99.90;;;;;;6279850;22;20011;-85
2023/08/13 13:58:34;;;;;;;10.02;2.35;;;22.50;99.90;;;;;;6306676;22;20023;-84
2023/08/13 14:01:11;;;;;;;9.00;2.30;;;22.50;99.90;;;;;;6310355;22;20011;-84
2023/08/13 14:03:37;;;;;;;9.85;2.33;;;22.40;99.90;;;;;;6316749;22;20447;-85
2023/08/13 14:06:03;;;;;;;10.00;2.30;;;22.30;99.90;;;;;;6280161;22;20015;-84
2023/08/13 14:08:44;;;;;;;8.55;2.42;;;22.30;99.90;;;;;;6280826;22;20011;-85
2023/08/13 14:11:25;;;;;;;9.85;2.40;;;22.20;99.90;;;;;;6279361;22;20026;-84
2023/08/13 14:13:51;;;;;;;9.05;2.35;;;22.30;99.90;;;;;;6307074;22;20016;-85